Flight Track Log - Related Links

Times and Time Zones

All times are in EDT time to prevent confusion due to time zone crossing. See the ASQ5745 flight status page for this flight to view local times or setup timezone preferences in your user account.

Time Position Orientation Groundspeed Altitude Reporting Facility
EDT Latitude Longitude Course Direction KTS MPH feet Rate Location/Type
Thu 08:25:02 AM 38.9667 -77.5333 North 185 213 2,100  Level Potomac TRACON
Thu 08:25:56 AM 38.9833 -77.6167 284° West 248 285 4,000 2,130 Climbing Potomac TRACON
Thu 08:27:00 AM 39.3218 -77.4500 North  Level FlightAware Approximate
Thu 08:28:00 AM 39.4189 -77.4500 North  Level FlightAware Approximate
Thu 08:28:22 AM 39.1467 -77.6017 North 281 323 9,200  Level Washington Center
Thu 08:29:00 AM 39.5160 -77.4500 North  Level FlightAware Approximate
Thu 08:29:22 AM 39.2264 -77.5769 14° North 281 323 11,200  Level Washington Center
Thu 08:30:00 AM 39.6131 -77.4500 North  Level FlightAware Approximate
Thu 08:30:23 AM 39.3122 -77.5525 12° North 288 331 12,400  Level Washington Center
Thu 08:32:15 AM 39.5067 -77.4986 12° North 389 448 14,600 1,221 Climbing New York Center
Thu 08:33:15 AM 39.6067 -77.4650 15° North 373 429 15,900 1,289 Climbing New York Center
Thu 08:34:16 AM 39.7114 -77.4533 North 364 419 17,200 1,033 Climbing New York Center
Thu 08:35:17 AM 39.8200 -77.4528 360° North 377 434 18,000 908 Climbing New York Center
Thu 08:36:15 AM 39.9161 -77.4511 North 382 440 19,000 908 Climbing New York Center
Thu 08:37:16 AM 40.0369 -77.4519 360° North 387 445 19,800 689 Climbing New York Center
Thu 08:38:17 AM 40.1503 -77.4356 North 392 451 20,400 545 Climbing New York Center
Thu 08:39:17 AM 40.2561 -77.3722 25° Northeast 393 452 20,900 504 Climbing New York Center
Thu 08:40:16 AM 40.3661 -77.3064 25° Northeast 410 472 21,400 454 Climbing New York Center
Thu 08:41:16 AM 40.4614 -77.2444 26° Northeast 422 486 21,800 496 Climbing New York Center
Thu 08:42:17 AM 40.5733 -77.1758 25° Northeast 432 497 22,400 655 Climbing New York Center
Thu 08:43:15 AM 40.6833 -77.1067 25° Northeast 438 504 23,100 864 Climbing New York Center
Thu 08:44:15 AM 40.7936 -77.0344 26° Northeast 438 504 24,100 1,000 Climbing New York Center
Thu 08:45:15 AM 40.9014 -76.9647 26° Northeast 438 504 25,100 843 Climbing New York Center
Thu 08:46:16 AM 41.0069 -76.9003 25° Northeast 432 497 25,800 590 Climbing New York Center
Thu 08:47:17 AM 41.1169 -76.8275 26° Northeast 432 497 26,300 496 Climbing New York Center
Thu 08:48:17 AM 41.2289 -76.7575 25° Northeast 432 497 26,800 359 Climbing New York Center
Thu 08:49:14 AM 41.3386 -76.6842 27° Northeast 438 504 27,000 102 Climbing New York Center
Thu 08:50:15 AM 41.4658 -76.6014 26° Northeast 443 510 27,000  Level New York Center
Thu 08:51:17 AM 41.5842 -76.5228 26° Northeast 449 517 27,000  Level New York Center
Thu 08:52:17 AM 41.7022 -76.4469 26° Northeast 459 528 27,000  Level New York Center
Thu 08:53:15 AM 41.7906 -76.3850 28° Northeast 464 534 27,000 -153 Level New York Center
Thu 08:54:15 AM 41.9303 -76.2936 26° Northeast 464 534 26,700 -984 Descending New York Center
Thu 08:56:18 AM 42.1572 -76.1233 29° Northeast 490 564 24,000 -783 Descending Boston Center
Thu 08:57:42 AM 42.2300 -75.9286 63° Northeast 468 539 24,000  Level Boston Center
Thu 08:58:42 AM 42.3028 -75.7275 64° Northeast 461 531 24,000 -850 Level Boston Center
Thu 08:59:42 AM 42.3575 -75.5589 66° East 466 536 22,300 -1,850 Descending Boston Center
Thu 09:00:42 AM 42.4036 -75.3981 69° East 466 536 20,300 -2,000 Descending Boston Center
Thu 09:01:42 AM 42.4119 -75.2297 86° East 453 521 18,300 -2,000 Descending Boston Center
Thu 09:02:42 AM 42.4158 -75.0669 88° East 443 510 16,300 -2,000 Descending Boston Center
Thu 09:03:42 AM 42.4233 -74.9208 86° East 438 504 14,300 -2,114 Descending Boston Center
Thu 09:04:27 AM 42.4303 -74.7917 86° East 413 475 12,600 -2,222 Descending Boston Center
Thu 09:05:03 AM 42.4342 -74.6961 87° East 403 464 11,300 -1,200 Descending Boston Center
Thu 09:05:42 AM 42.4361 -74.6033 88° East 405 466 11,100 -121 Descending Boston Center
Thu 09:06:42 AM 42.4508 -74.4772 81° East 388 447 11,100 -350 Level Boston Center
Thu 09:07:42 AM 42.4722 -74.3317 79° East 369 425 10,400 -1,050 Descending Boston Center
Thu 09:08:42 AM 42.4883 -74.2281 78° East 332 382 9,000 -1,800 Descending Boston Center
Thu 09:09:42 AM 42.5069 -74.1103 78° East 308 354 6,800 -2,050 Descending Boston Center
Thu 09:10:42 AM 42.5208 -74.0175 78° East 280 322 4,900 -1,714 Descending Boston Center
Thu 09:11:13 AM 42.5361 -73.9617 70° East 257 296 4,200 -1,200 Descending Boston Center
Thu 09:12:02 AM 42.5642 -73.8947 60° Northeast 232 267 3,300 -944 Descending Boston Center
Thu 09:12:42 AM 42.5853 -73.8614 49° Northeast 233 268 2,800 -780 Descending Boston Center
Thu 09:13:42 AM 42.6275 -73.8172 38° Northeast 216 249 2,000 -649 Descending Boston Center
Thu 09:15:10 AM 42.6922 -73.8072 North 136 157 1,200 -649 Descending Boston Center
Thu 09:16:10 AM 42.7339 -73.8081 359° North 134 154 400 -800 Descending Boston Center
Thu 09:20:00 AM 42.7333 -73.8000 75° East  Level FlightAware Approximate

Login

Don't have an account? Register now (free) for customized features, flight alerts, and more!